Time;durP1;ratioP1;P1;durP2;ratioP2;P2;SDS_P1;SDS_P2;PMS_P1;PMS_P2;Temp;Humidity;BMP_temperature;BMP_pressure;BME280_temperature;BME280_humidity;BME280_pressure;Samples;Min_cycle;Max_cycle;Signal;HPM_P1;HPM_P2
2022/04/08 00:00:51;;;;;;;14.57;3.00;;;;;;;;;;5051462;28;20563;-69
2022/04/08 00:03:16;;;;;;;17.07;3.60;;;;;;;;;;5050000;28;20247;-68
2022/04/08 00:05:42;;;;;;;13.60;2.60;;;;;;;;;;5049852;28;20651;-69
2022/04/08 00:08:07;;;;;;;24.00;3.63;;;;;;;;;;5046567;28;20224;-69
2022/04/08 00:10:32;;;;;;;6.53;2.10;;;;;;;;;;5041485;28;20166;-69
2022/04/08 00:12:58;;;;;;;17.60;2.57;;;;;;;;;;5046146;28;20178;-69
2022/04/08 00:15:23;;;;;;;11.17;2.43;;;;;;;;;;5047231;28;20178;-68
2022/04/08 00:17:48;;;;;;;13.53;3.70;;;;;;;;;;5051349;28;20205;-69
2022/04/08 00:20:13;;;;;;;8.70;2.57;;;;;;;;;;5047805;28;20200;-68
2022/04/08 00:22:40;;;;;;;9.37;2.27;;;;;;;;;;5041983;28;20229;-70
2022/04/08 00:25:05;;;;;;;13.80;2.50;;;;;;;;;;5046434;28;20181;-68
2022/04/08 00:27:31;;;;;;;13.60;2.70;;;;;;;;;;5049629;28;20548;-70
2022/04/08 00:29:56;;;;;;;11.67;3.10;;;;;;;;;;5047887;28;20563;-71
2022/04/08 00:32:21;;;;;;;13.50;2.30;;;;;;;;;;5049741;28;20189;-68
2022/04/08 00:34:46;;;;;;;14.30;2.37;;;;;;;;;;5045529;28;20185;-68
2022/04/08 00:37:11;;;;;;;26.03;3.27;;;;;;;;;;5051503;28;20580;-71
2022/04/08 00:39:37;;;;;;;11.40;2.20;;;;;;;;;;5046909;28;20236;-69
2022/04/08 00:42:02;;;;;;;21.77;3.07;;;;;;;;;;5048119;28;20198;-69
2022/04/08 00:44:29;;;;;;;10.80;3.10;;;;;;;;;;5052485;28;20253;-69
2022/04/08 00:46:54;;;;;;;20.27;2.93;;;;;;;;;;5050860;28;20630;-69
2022/04/08 00:49:19;;;;;;;16.97;2.80;;;;;;;;;;5051886;28;20201;-69
2022/04/08 00:51:44;;;;;;;13.00;3.27;;;;;;;;;;5049914;28;20268;-69
2022/04/08 00:54:10;;;;;;;12.53;4.97;;;;;;;;;;5050806;28;20216;-69
2022/04/08 00:56:36;;;;;;;10.23;2.83;;;;;;;;;;5052118;28;20216;-69
2022/04/08 00:59:01;;;;;;;14.73;2.60;;;;;;;;;;5051396;28;20221;-69
2022/04/08 01:01:26;;;;;;;19.50;4.47;;;;;;;;;;5049575;28;20674;-69
2022/04/08 01:03:52;;;;;;;10.00;2.37;;;;;;;;;;5049372;28;20208;-68
2022/04/08 01:06:21;;;;;;;16.17;2.93;;;;;;;;;;5050620;28;20235;-69
2022/04/08 01:08:47;;;;;;;13.30;3.63;;;;;;;;;;5043860;28;20197;-69
2022/04/08 01:11:12;;;;;;;8.77;2.47;;;;;;;;;;5045872;28;20543;-70
2022/04/08 01:13:37;;;;;;;11.50;2.53;;;;;;;;;;5048530;28;20556;-69
2022/04/08 01:16:06;;;;;;;9.53;2.40;;;;;;;;;;5040965;28;20218;-69
2022/04/08 01:18:31;;;;;;;12.40;1.87;;;;;;;;;;5050458;28;20201;-69
2022/04/08 01:20:56;;;;;;;12.07;2.30;;;;;;;;;;5049721;28;20686;-69
2022/04/08 01:23:22;;;;;;;12.90;2.33;;;;;;;;;;5047450;28;20216;-69
2022/04/08 01:25:47;;;;;;;12.00;2.50;;;;;;;;;;5047157;28;20182;-71
2022/04/08 01:28:13;;;;;;;18.87;3.20;;;;;;;;;;5047590;28;20208;-69
2022/04/08 01:30:38;;;;;;;11.63;2.57;;;;;;;;;;5051114;28;20185;-68
2022/04/08 01:33:03;;;;;;;11.23;2.00;;;;;;;;;;5040680;28;20178;-69
2022/04/08 01:35:28;;;;;;;10.07;1.73;;;;;;;;;;5048651;28;20217;-69
2022/04/08 01:37:53;;;;;;;16.80;2.37;;;;;;;;;;5045347;28;20202;-69
2022/04/08 01:40:18;;;;;;;13.00;1.90;;;;;;;;;;5047840;28;20180;-69
2022/04/08 01:42:44;;;;;;;12.47;1.57;;;;;;;;;;5043637;28;20214;-69
2022/04/08 01:45:09;;;;;;;12.80;1.93;;;;;;;;;;5048375;28;20195;-69
2022/04/08 01:47:34;;;;;;;9.47;1.97;;;;;;;;;;5050147;28;20276;-69
2022/04/08 01:50:00;;;;;;;8.33;1.53;;;;;;;;;;5045477;28;20280;-70
2022/04/08 01:52:25;;;;;;;12.43;3.50;;;;;;;;;;5048869;28;20235;-71
2022/04/08 01:54:50;;;;;;;8.00;2.33;;;;;;;;;;5049609;28;20687;-69
2022/04/08 01:57:18;;;;;;;12.33;3.33;;;;;;;;;;5049330;28;20227;-69
2022/04/08 01:59:44;;;;;;;12.93;2.47;;;;;;;;;;5051159;28;20255;-70
2022/04/08 02:02:09;;;;;;;12.33;1.70;;;;;;;;;;5049558;28;20209;-70
2022/04/08 02:04:35;;;;;;;12.13;3.47;;;;;;;;;;5049641;28;20610;-69
2022/04/08 02:07:02;;;;;;;7.37;1.93;;;;;;;;;;5048794;28;20182;-70
2022/04/08 02:09:27;;;;;;;10.07;2.07;;;;;;;;;;5046802;28;20205;-69
2022/04/08 02:11:52;;;;;;;11.13;2.60;;;;;;;;;;5049452;28;20564;-69
2022/04/08 02:14:17;;;;;;;12.03;2.50;;;;;;;;;;5046679;28;20186;-69
2022/04/08 02:16:43;;;;;;;9.13;2.20;;;;;;;;;;5046907;28;20177;-71
2022/04/08 02:19:08;;;;;;;5.27;1.60;;;;;;;;;;5047473;28;20200;-69
2022/04/08 02:21:34;;;;;;;8.73;1.87;;;;;;;;;;5048287;28;20699;-71
2022/04/08 02:23:59;;;;;;;8.27;2.23;;;;;;;;;;5047583;28;20173;-71
2022/04/08 02:26:25;;;;;;;10.13;1.40;;;;;;;;;;5048708;28;20253;-70
2022/04/08 02:28:50;;;;;;;6.20;1.37;;;;;;;;;;5049504;28;20225;-71
2022/04/08 02:31:15;;;;;;;6.30;1.60;;;;;;;;;;5049363;28;20623;-70
2022/04/08 02:33:40;;;;;;;6.57;1.10;;;;;;;;;;5048685;28;20177;-69
2022/04/08 02:36:06;;;;;;;7.70;2.03;;;;;;;;;;5048895;28;20263;-69
2022/04/08 02:38:31;;;;;;;10.83;1.70;;;;;;;;;;5049397;28;20577;-70
2022/04/08 02:40:57;;;;;;;9.63;2.30;;;;;;;;;;5049844;28;20241;-70
2022/04/08 02:43:22;;;;;;;11.73;1.80;;;;;;;;;;5049300;28;20237;-69
2022/04/08 02:45:47;;;;;;;2.67;1.37;;;;;;;;;;5047534;28;21559;-68
2022/04/08 02:48:16;;;;;;;4.03;1.80;;;;;;;;;;5049375;28;20225;-69
2022/04/08 02:50:41;;;;;;;5.03;2.13;;;;;;;;;;5048697;28;20174;-71
2022/04/08 02:53:06;;;;;;;7.90;2.07;;;;;;;;;;5047524;28;20189;-68
2022/04/08 02:55:31;;;;;;;8.10;1.70;;;;;;;;;;5048993;28;20608;-71
2022/04/08 02:57:56;;;;;;;6.83;2.27;;;;;;;;;;5049615;28;20198;-70
2022/04/08 03:00:22;;;;;;;4.80;1.60;;;;;;;;;;5049082;28;20595;-68
2022/04/08 03:02:48;;;;;;;4.77;1.70;;;;;;;;;;5049185;28;20205;-69
2022/04/08 03:05:14;;;;;;;5.10;1.77;;;;;;;;;;5048948;28;20233;-69
2022/04/08 03:07:39;;;;;;;8.30;1.70;;;;;;;;;;5048252;28;20283;-69
2022/04/08 03:10:05;;;;;;;4.33;1.83;;;;;;;;;;5049382;28;20409;-69
2022/04/08 03:12:31;;;;;;;6.63;1.70;;;;;;;;;;5044098;28;20186;-69
2022/04/08 03:14:57;;;;;;;7.83;4.47;;;;;;;;;;5040792;28;20503;-69
2022/04/08 03:17:22;;;;;;;6.63;1.83;;;;;;;;;;5046848;28;20189;-69
2022/04/08 03:19:47;;;;;;;2.93;2.10;;;;;;;;;;5048239;28;20531;-68
2022/04/08 03:22:12;;;;;;;8.43;1.90;;;;;;;;;;5048387;28;20627;-69
2022/04/08 03:24:38;;;;;;;8.03;1.90;;;;;;;;;;5048962;28;20545;-69
2022/04/08 03:27:03;;;;;;;6.20;2.10;;;;;;;;;;5047382;28;20213;-68
2022/04/08 03:29:28;;;;;;;5.47;2.00;;;;;;;;;;5049362;28;20212;-67
2022/04/08 03:31:53;;;;;;;9.37;1.80;;;;;;;;;;5036943;28;20216;-68
2022/04/08 03:34:18;;;;;;;7.13;2.50;;;;;;;;;;5041386;28;20188;-69
2022/04/08 03:36:45;;;;;;;12.00;2.57;;;;;;;;;;5041107;28;20651;-69
2022/04/08 03:39:11;;;;;;;9.60;2.23;;;;;;;;;;5047967;28;20213;-69
2022/04/08 03:41:36;;;;;;;11.87;2.40;;;;;;;;;;5036742;28;20232;-70
2022/04/08 03:44:02;;;;;;;6.63;2.40;;;;;;;;;;5045299;28;20572;-70
2022/04/08 03:46:27;;;;;;;11.77;2.27;;;;;;;;;;5044624;28;20170;-70
2022/04/08 03:48:52;;;;;;;5.07;2.90;;;;;;;;;;5048848;28;20229;-68
2022/04/08 03:51:17;;;;;;;13.03;3.03;;;;;;;;;;5045636;28;20178;-71
2022/04/08 03:53:42;;;;;;;4.63;2.57;;;;;;;;;;5044061;28;20189;-71
2022/04/08 03:56:07;;;;;;;7.07;2.67;;;;;;;;;;5046347;28;20178;-68
2022/04/08 03:58:33;;;;;;;11.07;3.13;;;;;;;;;;5044369;28;20229;-70
2022/04/08 04:00:58;;;;;;;6.87;2.43;;;;;;;;;;5046359;28;20182;-67
2022/04/08 04:03:23;;;;;;;10.53;3.23;;;;;;;;;;5041694;28;20277;-69
2022/04/08 04:05:49;;;;;;;6.43;2.67;;;;;;;;;;5035758;28;20261;-69
2022/04/08 04:08:20;;;;;;;10.10;3.00;;;;;;;;;;5039452;28;20198;-71
2022/04/08 04:10:46;;;;;;;9.40;3.27;;;;;;;;;;5047841;28;20245;-70
2022/04/08 04:13:11;;;;;;;10.10;4.33;;;;;;;;;;5048108;28;20184;-69
2022/04/08 04:15:36;;;;;;;8.93;2.90;;;;;;;;;;5049341;28;20541;-69
2022/04/08 04:18:02;;;;;;;9.53;2.83;;;;;;;;;;5053997;28;20197;-70
2022/04/08 04:20:27;;;;;;;6.23;2.53;;;;;;;;;;5051956;28;20180;-69
2022/04/08 04:22:53;;;;;;;7.77;2.93;;;;;;;;;;5052548;28;20205;-72
2022/04/08 04:25:18;;;;;;;9.43;2.97;;;;;;;;;;5047317;28;20178;-68
2022/04/08 04:27:43;;;;;;;11.07;3.40;;;;;;;;;;5051359;28;20194;-69
2022/04/08 04:30:09;;;;;;;7.33;3.27;;;;;;;;;;5052491;28;20546;-68
2022/04/08 04:32:34;;;;;;;9.90;3.23;;;;;;;;;;5049157;28;20192;-69
2022/04/08 04:35:06;;;;;;;4.77;2.40;;;;;;;;;;5050088;28;20180;-68
2022/04/08 04:37:31;;;;;;;6.47;3.00;;;;;;;;;;5049027;28;20217;-71
2022/04/08 04:39:56;;;;;;;10.13;2.87;;;;;;;;;;5050045;28;20738;-69
2022/04/08 04:42:21;;;;;;;7.23;3.00;;;;;;;;;;5052074;28;20232;-69
2022/04/08 04:44:47;;;;;;;5.70;3.23;;;;;;;;;;5044676;28;20245;-69
2022/04/08 04:47:12;;;;;;;5.73;3.37;;;;;;;;;;5052325;28;20176;-69
2022/04/08 04:49:37;;;;;;;9.07;3.47;;;;;;;;;;5045869;28;20194;-70
2022/04/08 04:52:02;;;;;;;4.73;2.93;;;;;;;;;;5041448;28;20220;-68
2022/04/08 04:54:27;;;;;;;9.33;3.90;;;;;;;;;;5049600;28;20178;-69
2022/04/08 04:56:53;;;;;;;8.87;3.77;;;;;;;;;;5049926;28;20263;-69
2022/04/08 04:59:18;;;;;;;10.37;4.73;;;;;;;;;;5051379;28;20245;-70
2022/04/08 05:01:43;;;;;;;9.83;3.63;;;;;;;;;;5037080;28;20174;-68
2022/04/08 05:04:08;;;;;;;7.70;2.90;;;;;;;;;;5048456;28;20173;-70
2022/04/08 05:06:34;;;;;;;6.43;3.60;;;;;;;;;;5049090;28;20239;-68
2022/04/08 05:09:00;;;;;;;8.93;3.13;;;;;;;;;;5051710;28;20197;-69
2022/04/08 05:11:26;;;;;;;7.63;2.90;;;;;;;;;;5051602;28;20190;-69
2022/04/08 05:13:51;;;;;;;8.50;2.63;;;;;;;;;;5047743;28;20201;-70
2022/04/08 05:16:16;;;;;;;7.10;3.33;;;;;;;;;;5051246;28;20182;-69
2022/04/08 05:18:41;;;;;;;6.40;3.43;;;;;;;;;;5050434;28;20548;-69
2022/04/08 05:21:06;;;;;;;9.97;3.87;;;;;;;;;;5050332;28;20185;-69
2022/04/08 05:23:32;;;;;;;5.53;2.50;;;;;;;;;;5050430;28;20209;-69
2022/04/08 05:25:58;;;;;;;9.33;4.27;;;;;;;;;;5050250;28;20677;-69
2022/04/08 05:28:23;;;;;;;12.27;4.30;;;;;;;;;;5051514;28;20224;-68
2022/04/08 05:30:48;;;;;;;6.33;3.27;;;;;;;;;;5048763;28;20563;-69
2022/04/08 05:33:14;;;;;;;7.40;3.70;;;;;;;;;;5050664;28;20186;-69
2022/04/08 05:35:39;;;;;;;8.67;3.17;;;;;;;;;;5052328;28;20184;-69
2022/04/08 05:38:04;;;;;;;8.97;3.53;;;;;;;;;;5050770;28;20232;-69
2022/04/08 05:40:29;;;;;;;8.27;3.37;;;;;;;;;;5050720;28;20173;-69
2022/04/08 05:42:55;;;;;;;15.07;4.47;;;;;;;;;;5049731;28;20193;-68
2022/04/08 05:45:23;;;;;;;8.20;3.93;;;;;;;;;;5049587;28;20323;-69
2022/04/08 05:47:54;;;;;;;10.73;3.90;;;;;;;;;;5046103;28;20194;-71
2022/04/08 05:50:19;;;;;;;11.33;3.80;;;;;;;;;;5048827;28;20255;-68
2022/04/08 05:52:47;;;;;;;7.53;3.70;;;;;;;;;;5051891;28;20224;-69
2022/04/08 05:55:12;;;;;;;8.30;2.70;;;;;;;;;;5050147;28;20201;-69
2022/04/08 05:57:41;;;;;;;10.13;3.30;;;;;;;;;;5049701;28;20687;-69
2022/04/08 06:00:09;;;;;;;9.77;2.93;;;;;;;;;;5049066;28;20542;-68
2022/04/08 06:02:34;;;;;;;7.37;2.60;;;;;;;;;;5048037;28;20197;-69
2022/04/08 06:04:59;;;;;;;6.23;2.90;;;;;;;;;;5041689;28;20170;-68
2022/04/08 06:07:25;;;;;;;6.67;2.67;;;;;;;;;;5049753;28;20173;-69
2022/04/08 06:09:50;;;;;;;10.83;3.20;;;;;;;;;;5051259;28;20244;-69
2022/04/08 06:12:15;;;;;;;5.70;2.23;;;;;;;;;;5048448;28;20181;-69
2022/04/08 06:14:40;;;;;;;9.15;3.00;;;;;;;;;;5048243;28;20182;-69
2022/04/08 06:17:05;;;;;;;7.60;3.07;;;;;;;;;;5049533;28;20683;-69
2022/04/08 06:19:31;;;;;;;6.40;2.50;;;;;;;;;;5050644;28;20201;-69
2022/04/08 06:21:56;;;;;;;4.67;2.33;;;;;;;;;;5038427;28;20202;-69
2022/04/08 06:24:21;;;;;;;4.97;2.07;;;;;;;;;;5042428;28;20186;-69
2022/04/08 06:26:46;;;;;;;7.15;2.58;;;;;;;;;;5049811;28;20181;-69
2022/04/08 06:29:11;;;;;;;6.73;2.37;;;;;;;;;;5044399;28;20202;-69
2022/04/08 06:31:36;;;;;;;6.43;2.73;;;;;;;;;;5042877;28;20170;-69
2022/04/08 06:34:02;;;;;;;7.70;2.60;;;;;;;;;;5047042;28;20408;-69
2022/04/08 06:36:27;;;;;;;7.90;3.37;;;;;;;;;;5048036;28;20205;-68
2022/04/08 06:38:53;;;;;;;4.30;2.00;;;;;;;;;;5043359;28;20290;-69
2022/04/08 06:41:18;;;;;;;6.80;2.40;;;;;;;;;;5046437;28;20173;-69
2022/04/08 06:43:43;;;;;;;6.70;2.30;;;;;;;;;;5049929;28;20674;-69
2022/04/08 06:46:08;;;;;;;3.83;2.63;;;;;;;;;;5066863;28;20190;-69
2022/04/08 06:48:33;;;;;;;6.90;1.90;;;;;;;;;;5037622;28;20546;-69
2022/04/08 06:51:00;;;;;;;8.17;3.00;;;;;;;;;;5049838;28;20168;-69
2022/04/08 06:53:25;;;;;;;6.93;1.80;;;;;;;;;;5052890;28;20181;-69
2022/04/08 06:55:50;;;;;;;3.77;1.60;;;;;;;;;;5050926;28;20257;-69
2022/04/08 06:58:16;;;;;;;2.17;1.60;;;;;;;;;;5048253;28;20236;-69
2022/04/08 07:00:41;;;;;;;7.27;2.20;;;;;;;;;;5038060;28;20204;-68
2022/04/08 07:03:06;;;;;;;7.00;1.87;;;;;;;;;;5047208;28;20570;-69
2022/04/08 07:05:31;;;;;;;3.20;1.53;;;;;;;;;;5041302;28;20199;-69
2022/04/08 07:07:57;;;;;;;10.67;2.20;;;;;;;;;;5048503;28;20710;-70
2022/04/08 07:10:22;;;;;;;7.67;1.90;;;;;;;;;;5057708;28;20192;-68
2022/04/08 07:12:47;;;;;;;4.50;1.63;;;;;;;;;;5055388;28;20187;-69
2022/04/08 07:15:12;;;;;;;4.03;1.70;;;;;;;;;;5050356;28;20224;-68
2022/04/08 07:17:38;;;;;;;4.77;1.90;;;;;;;;;;5046834;28;20205;-69
2022/04/08 07:20:07;;;;;;;6.30;1.60;;;;;;;;;;5049638;28;20268;-68
2022/04/08 07:22:33;;;;;;;7.77;1.60;;;;;;;;;;5044731;28;20296;-69
2022/04/08 07:24:58;;;;;;;3.73;1.33;;;;;;;;;;5049943;28;20253;-69
2022/04/08 07:27:23;;;;;;;9.17;1.63;;;;;;;;;;5054848;28;20177;-68
2022/04/08 07:29:49;;;;;;;5.57;1.80;;;;;;;;;;5059040;28;20174;-67
2022/04/08 07:32:21;;;;;;;5.90;1.70;;;;;;;;;;5044149;28;20193;-69
2022/04/08 07:34:49;;;;;;;3.40;1.30;;;;;;;;;;5050007;28;20180;-69
2022/04/08 07:37:15;;;;;;;2.53;1.50;;;;;;;;;;5047883;28;20430;-68
2022/04/08 07:39:42;;;;;;;4.57;1.60;;;;;;;;;;5062541;28;20547;-69
2022/04/08 07:42:08;;;;;;;5.50;1.77;;;;;;;;;;5036919;28;20222;-68
2022/04/08 07:44:33;;;;;;;5.00;1.17;;;;;;;;;;5047132;28;20264;-68
2022/04/08 07:46:58;;;;;;;5.00;2.00;;;;;;;;;;5049272;28;20320;-68
2022/04/08 07:49:23;;;;;;;4.30;1.60;;;;;;;;;;5045824;28;20575;-68
2022/04/08 07:51:49;;;;;;;5.43;2.20;;;;;;;;;;5058464;28;20181;-69
2022/04/08 07:54:14;;;;;;;7.47;1.63;;;;;;;;;;5057262;28;20646;-69
2022/04/08 07:56:39;;;;;;;5.20;2.03;;;;;;;;;;5042471;28;20666;-69
2022/04/08 07:59:04;;;;;;;6.37;2.17;;;;;;;;;;5052259;28;20229;-69
2022/04/08 08:01:29;;;;;;;7.53;1.83;;;;;;;;;;5048945;28;20620;-69
2022/04/08 08:03:55;;;;;;;4.83;2.03;;;;;;;;;;5046222;28;20297;-68
2022/04/08 08:06:20;;;;;;;5.00;1.90;;;;;;;;;;5049014;28;20198;-70
2022/04/08 08:08:46;;;;;;;5.70;1.70;;;;;;;;;;5038361;28;20213;-67
2022/04/08 08:11:13;;;;;;;8.03;1.90;;;;;;;;;;5046555;28;20171;-68
2022/04/08 08:13:38;;;;;;;12.70;2.10;;;;;;;;;;5049376;28;20186;-68
2022/04/08 08:16:04;;;;;;;9.47;2.90;;;;;;;;;;5051458;28;20227;-67
2022/04/08 08:18:29;;;;;;;3.23;1.40;;;;;;;;;;5045906;28;20709;-68
2022/04/08 08:20:54;;;;;;;11.67;2.37;;;;;;;;;;5051192;28;20260;-69
2022/04/08 08:23:20;;;;;;;5.53;2.00;;;;;;;;;;5052579;28;20213;-69
2022/04/08 08:25:45;;;;;;;8.73;2.30;;;;;;;;;;5039396;28;20677;-68
2022/04/08 08:28:10;;;;;;;5.67;2.03;;;;;;;;;;5050606;28;20190;-69
2022/04/08 08:30:37;;;;;;;6.07;2.13;;;;;;;;;;5044860;28;20177;-69
2022/04/08 08:33:05;;;;;;;6.70;2.13;;;;;;;;;;5048082;28;20185;-69
2022/04/08 08:35:32;;;;;;;7.27;2.17;;;;;;;;;;5050122;28;20235;-70
2022/04/08 08:37:57;;;;;;;5.83;1.63;;;;;;;;;;5044137;28;20217;-69
2022/04/08 08:40:23;;;;;;;8.73;2.47;;;;;;;;;;5042780;28;20178;-70
2022/04/08 08:42:49;;;;;;;3.53;1.60;;;;;;;;;;5038705;28;20251;-69
2022/04/08 08:45:14;;;;;;;5.53;1.80;;;;;;;;;;5051185;28;20260;-69
2022/04/08 08:47:39;;;;;;;6.80;2.10;;;;;;;;;;5052735;28;20268;-69
2022/04/08 08:50:06;;;;;;;3.43;1.73;;;;;;;;;;5052937;28;20195;-69
2022/04/08 08:52:32;;;;;;;10.93;2.00;;;;;;;;;;5051367;28;20181;-69
2022/04/08 08:54:58;;;;;;;5.00;1.90;;;;;;;;;;5047850;28;20182;-69
2022/04/08 08:57:23;;;;;;;9.07;2.00;;;;;;;;;;5038070;28;20299;-68
2022/04/08 08:59:53;;;;;;;3.33;1.40;;;;;;;;;;5055307;28;20650;-68
2022/04/08 09:02:19;;;;;;;9.63;2.17;;;;;;;;;;5063282;28;20686;-68
2022/04/08 09:04:44;;;;;;;5.87;1.60;;;;;;;;;;5052294;28;20197;-67
2022/04/08 09:07:22;;;;;;;4.43;1.50;;;;;;;;;;5052609;28;20302;-67
2022/04/08 09:09:54;;;;;;;10.37;2.47;;;;;;;;;;5050084;28;20524;-68
2022/04/08 09:12:20;;;;;;;8.77;2.50;;;;;;;;;;5052703;28;20227;-68
2022/04/08 09:14:49;;;;;;;7.63;1.70;;;;;;;;;;5048189;28;20186;-67
2022/04/08 09:17:15;;;;;;;8.10;2.30;;;;;;;;;;5037683;28;20213;-68
2022/04/08 09:19:40;;;;;;;7.50;1.63;;;;;;;;;;5051821;28;20260;-68
2022/04/08 09:22:05;;;;;;;9.53;2.43;;;;;;;;;;5052247;28;20181;-68
2022/04/08 09:24:31;;;;;;;7.13;1.40;;;;;;;;;;5050410;28;20557;-69
2022/04/08 09:26:56;;;;;;;6.50;1.57;;;;;;;;;;5052787;28;20184;-68
2022/04/08 09:29:22;;;;;;;5.67;1.50;;;;;;;;;;5059833;28;20195;-68
2022/04/08 09:31:49;;;;;;;6.50;1.60;;;;;;;;;;5052041;28;20176;-68
2022/04/08 09:34:16;;;;;;;4.17;1.60;;;;;;;;;;5045034;28;20178;-68
2022/04/08 09:36:41;;;;;;;3.63;1.20;;;;;;;;;;5041316;28;20178;-68
2022/04/08 09:39:07;;;;;;;6.47;1.77;;;;;;;;;;5051769;28;20561;-68
2022/04/08 09:41:37;;;;;;;3.30;1.10;;;;;;;;;;5052098;28;20178;-68
2022/04/08 09:44:02;;;;;;;8.67;1.67;;;;;;;;;;5051223;28;20227;-68
2022/04/08 09:46:28;;;;;;;4.03;1.10;;;;;;;;;;5052006;28;20177;-69
2022/04/08 09:48:54;;;;;;;5.47;1.80;;;;;;;;;;5052615;28;20217;-69
2022/04/08 09:51:23;;;;;;;2.20;0.93;;;;;;;;;;5051016;28;20174;-67
2022/04/08 09:53:58;;;;;;;4.77;1.53;;;;;;;;;;5045713;28;20246;-69
2022/04/08 09:56:25;;;;;;;6.30;1.20;;;;;;;;;;5051897;28;20185;-69
2022/04/08 09:58:54;;;;;;;6.17;1.20;;;;;;;;;;5046057;28;20562;-68
2022/04/08 10:01:21;;;;;;;4.90;1.00;;;;;;;;;;5050184;28;20655;-69
2022/04/08 10:03:47;;;;;;;8.07;2.10;;;;;;;;;;5051109;28;20271;-69
2022/04/08 10:06:12;;;;;;;6.63;1.83;;;;;;;;;;5051496;28;20646;-69
2022/04/08 10:08:38;;;;;;;8.13;1.70;;;;;;;;;;5050053;28;20197;-69
2022/04/08 10:11:06;;;;;;;6.03;1.60;;;;;;;;;;5057277;28;20779;-69
2022/04/08 10:14:03;;;;;;;7.10;1.50;;;;;;;;;;5047369;28;20180;-69
2022/04/08 10:16:30;;;;;;;2.13;1.00;;;;;;;;;;5024559;28;20566;-68
2022/04/08 10:18:55;;;;;;;3.87;1.17;;;;;;;;;;5051605;28;20675;-69
2022/04/08 10:21:20;;;;;;;7.43;1.07;;;;;;;;;;5048433;28;20189;-68
2022/04/08 10:23:55;;;;;;;3.27;1.10;;;;;;;;;;5065365;28;20207;-69
2022/04/08 10:26:21;;;;;;;3.60;1.20;;;;;;;;;;5052852;28;20173;-69
2022/04/08 10:28:46;;;;;;;5.70;2.33;;;;;;;;;;5051462;28;20573;-69
2022/04/08 10:31:27;;;;;;;11.43;1.87;;;;;;;;;;5050188;28;20177;-68
2022/04/08 10:33:52;;;;;;;5.87;1.30;;;;;;;;;;5051957;28;20176;-70
2022/04/08 10:36:17;;;;;;;5.67;1.40;;;;;;;;;;5049114;28;20181;-68
2022/04/08 10:38:43;;;;;;;4.80;1.10;;;;;;;;;;5050232;28;20537;-67
2022/04/08 10:41:11;;;;;;;4.03;1.10;;;;;;;;;;5056093;28;20173;-68
2022/04/08 10:43:43;;;;;;;6.63;1.70;;;;;;;;;;5050161;28;20701;-70
2022/04/08 10:46:08;;;;;;;8.60;2.17;;;;;;;;;;5050744;28;20228;-68
2022/04/08 10:48:34;;;;;;;5.67;1.53;;;;;;;;;;5042354;28;20683;-68
2022/04/08 10:51:09;;;;;;;6.28;1.40;;;;;;;;;;5044759;28;20223;-67
2022/04/08 10:53:34;;;;;;;8.68;1.73;;;;;;;;;;5048355;28;20179;-67
2022/04/08 10:56:10;;;;;;;5.07;1.70;;;;;;;;;;5049013;28;20173;-69
2022/04/08 10:58:42;;;;;;;6.88;1.33;;;;;;;;;;5050711;28;20658;-68
2022/04/08 11:01:26;;;;;;;8.10;1.13;;;;;;;;;;5050861;28;20228;-68
2022/04/08 11:03:55;;;;;;;7.83;1.57;;;;;;;;;;5050197;28;20668;-68
2022/04/08 11:06:22;;;;;;;8.23;1.10;;;;;;;;;;5050308;28;20165;-68
2022/04/08 11:08:47;;;;;;;3.45;1.42;;;;;;;;;;5053286;28;20573;-68
2022/04/08 11:11:13;;;;;;;4.75;2.20;;;;;;;;;;5057923;28;20196;-68
2022/04/08 11:13:40;;;;;;;3.92;1.30;;;;;;;;;;5050611;28;20253;-68
2022/04/08 11:16:05;;;;;;;7.57;1.87;;;;;;;;;;5050546;28;20215;-68
2022/04/08 11:18:30;;;;;;;8.37;2.17;;;;;;;;;;5050827;28;20185;-68
2022/04/08 11:20:55;;;;;;;4.33;1.57;;;;;;;;;;5049693;28;20265;-68
2022/04/08 11:23:25;;;;;;;5.10;1.43;;;;;;;;;;5049359;28;20555;-68
2022/04/08 11:25:50;;;;;;;7.33;1.40;;;;;;;;;;5054382;28;20177;-68
2022/04/08 11:28:16;;;;;;;4.87;1.40;;;;;;;;;;5054953;28;20231;-69
2022/04/08 11:30:42;;;;;;;4.37;1.40;;;;;;;;;;5054730;28;20643;-69
2022/04/08 11:33:13;;;;;;;9.23;3.57;;;;;;;;;;5050396;28;20184;-69
2022/04/08 11:35:39;;;;;;;4.17;1.20;;;;;;;;;;5062499;28;20176;-68
2022/04/08 11:38:17;;;;;;;4.20;1.47;;;;;;;;;;5054343;28;20213;-69
2022/04/08 11:40:43;;;;;;;12.20;2.47;;;;;;;;;;5045579;28;20178;-69
2022/04/08 11:43:11;;;;;;;10.50;2.17;;;;;;;;;;5054423;28;20194;-69
2022/04/08 11:45:37;;;;;;;3.37;1.30;;;;;;;;;;5053619;28;20181;-68
2022/04/08 11:48:05;;;;;;;4.70;1.20;;;;;;;;;;5060667;28;20194;-69
2022/04/08 11:50:32;;;;;;;5.95;2.03;;;;;;;;;;5053556;28;20181;-68
2022/04/08 11:52:58;;;;;;;4.20;1.40;;;;;;;;;;5050475;28;20179;-68
2022/04/08 11:55:24;;;;;;;6.47;1.70;;;;;;;;;;5053218;28;20539;-69
2022/04/08 11:57:49;;;;;;;6.03;1.80;;;;;;;;;;5052088;28;20565;-69
2022/04/08 12:00:15;;;;;;;5.67;1.63;;;;;;;;;;5054239;28;20269;-69
2022/04/08 12:02:41;;;;;;;5.47;1.30;;;;;;;;;;5053934;28;20198;-69
2022/04/08 12:05:07;;;;;;;4.20;1.10;;;;;;;;;;5052983;28;20174;-69
2022/04/08 12:07:33;;;;;;;3.10;0.98;;;;;;;;;;5052053;28;20198;-69
2022/04/08 12:09:59;;;;;;;5.55;1.17;;;;;;;;;;5052131;28;20235;-69
2022/04/08 12:12:24;;;;;;;5.55;1.67;;;;;;;;;;5053903;28;20182;-69
2022/04/08 12:14:50;;;;;;;5.45;1.40;;;;;;;;;;5049745;28;20656;-69
2022/04/08 12:17:15;;;;;;;4.45;0.98;;;;;;;;;;5053711;28;20231;-69
2022/04/08 12:19:41;;;;;;;5.72;1.20;;;;;;;;;;5053587;28;20177;-69
2022/04/08 12:22:12;;;;;;;3.88;2.20;;;;;;;;;;5053472;28;20272;-69
2022/04/08 12:24:39;;;;;;;4.28;1.30;;;;;;;;;;5048505;28;20162;-69
2022/04/08 12:27:16;;;;;;;6.30;1.38;;;;;;;;;;5053596;28;20201;-69
2022/04/08 12:29:41;;;;;;;4.40;1.20;;;;;;;;;;5048874;28;20177;-69
2022/04/08 12:32:12;;;;;;;4.25;1.20;;;;;;;;;;5052441;28;20548;-69
2022/04/08 12:34:37;;;;;;;4.50;1.48;;;;;;;;;;5049466;28;20181;-69
2022/04/08 12:37:02;;;;;;;5.70;2.05;;;;;;;;;;5065604;28;20181;-69
2022/04/08 12:39:27;;;;;;;5.28;1.85;;;;;;;;;;5053456;28;20759;-69
2022/04/08 12:41:58;;;;;;;2.13;1.10;;;;;;;;;;5053258;28;20169;-69
2022/04/08 12:44:23;;;;;;;5.68;1.60;;;;;;;;;;5052731;28;20967;-69
2022/04/08 12:46:49;;;;;;;4.93;1.90;;;;;;;;;;5053014;28;20398;-69
2022/04/08 12:49:14;;;;;;;5.43;2.08;;;;;;;;;;5045494;28;20233;-69
2022/04/08 12:51:40;;;;;;;8.95;1.40;;;;;;;;;;5040605;28;20243;-67
2022/04/08 12:54:05;;;;;;;8.00;1.77;;;;;;;;;;5047218;28;20220;-69
2022/04/08 12:56:30;;;;;;;4.22;1.52;;;;;;;;;;5059956;28;20185;-69
2022/04/08 12:58:57;;;;;;;6.88;1.70;;;;;;;;;;5054331;28;20689;-70
2022/04/08 13:01:22;;;;;;;5.22;1.60;;;;;;;;;;5047341;28;20685;-69
2022/04/08 13:03:48;;;;;;;3.03;1.27;;;;;;;;;;5050054;28;20229;-69
2022/04/08 13:06:13;;;;;;;4.03;1.83;;;;;;;;;;5052254;28;20647;-69
2022/04/08 13:08:38;;;;;;;3.85;1.20;;;;;;;;;;5054348;28;20189;-69
2022/04/08 13:11:03;;;;;;;6.03;1.55;;;;;;;;;;5056615;28;20176;-69
2022/04/08 13:13:30;;;;;;;5.28;1.85;;;;;;;;;;5051941;28;20651;-69
2022/04/08 13:15:55;;;;;;;4.22;1.38;;;;;;;;;;5047862;28;20173;-69
2022/04/08 13:18:20;;;;;;;6.45;1.42;;;;;;;;;;5052689;28;20197;-69
2022/04/08 13:20:45;;;;;;;5.88;1.60;;;;;;;;;;5052679;28;20648;-70
2022/04/08 13:23:10;;;;;;;5.60;1.40;;;;;;;;;;5045045;28;20273;-70
2022/04/08 13:25:36;;;;;;;4.03;1.40;;;;;;;;;;5051802;28;20545;-70
2022/04/08 13:28:01;;;;;;;3.80;1.50;;;;;;;;;;5052496;28;20189;-69
2022/04/08 13:30:26;;;;;;;5.18;1.60;;;;;;;;;;5052298;28;20219;-69
2022/04/08 13:32:52;;;;;;;4.88;1.30;;;;;;;;;;5051778;28;20169;-69
2022/04/08 13:35:17;;;;;;;3.58;1.35;;;;;;;;;;5051481;28;20170;-69
2022/04/08 13:37:42;;;;;;;5.05;1.25;;;;;;;;;;5052162;28;20636;-68
2022/04/08 13:40:08;;;;;;;5.30;1.05;;;;;;;;;;5049467;28;20639;-69
2022/04/08 13:42:33;;;;;;;4.70;0.80;;;;;;;;;;5052079;28;20197;-68
2022/04/08 13:44:58;;;;;;;2.63;0.90;;;;;;;;;;5051400;28;20551;-68
2022/04/08 13:47:24;;;;;;;7.40;1.20;;;;;;;;;;5051071;28;20537;-69
2022/04/08 13:49:49;;;;;;;2.30;0.97;;;;;;;;;;5053117;28;20257;-69
2022/04/08 13:52:14;;;;;;;5.57;1.60;;;;;;;;;;5048702;28;20640;-69
2022/04/08 13:54:39;;;;;;;4.83;1.13;;;;;;;;;;5055326;28;20208;-69
2022/04/08 13:57:05;;;;;;;4.27;1.53;;;;;;;;;;5052011;28;20166;-69
2022/04/08 13:59:30;;;;;;;3.77;1.20;;;;;;;;;;5051851;28;20188;-69
2022/04/08 14:01:55;;;;;;;8.57;2.70;;;;;;;;;;5052397;28;20174;-69
2022/04/08 14:04:21;;;;;;;4.07;1.60;;;;;;;;;;5055658;28;20201;-69
2022/04/08 14:06:46;;;;;;;7.78;1.88;;;;;;;;;;5051723;28;20174;-69
2022/04/08 14:09:17;;;;;;;6.03;1.63;;;;;;;;;;5065804;28;20559;-68
2022/04/08 14:11:43;;;;;;;5.05;1.45;;;;;;;;;;5048210;28;20281;-69
2022/04/08 14:14:08;;;;;;;8.88;1.73;;;;;;;;;;5047315;28;20177;-69
2022/04/08 14:16:33;;;;;;;3.67;1.20;;;;;;;;;;5047559;28;20221;-69
2022/04/08 14:18:58;;;;;;;8.65;1.60;;;;;;;;;;5048333;28;20259;-69
2022/04/08 14:21:24;;;;;;;7.90;1.20;;;;;;;;;;5047912;28;20185;-69
2022/04/08 14:23:49;;;;;;;5.77;1.77;;;;;;;;;;5047592;28;20235;-69
2022/04/08 14:26:14;;;;;;;8.82;1.85;;;;;;;;;;5047777;28;20619;-69
2022/04/08 14:28:39;;;;;;;6.63;1.93;;;;;;;;;;5048048;28;20267;-69
2022/04/08 14:31:05;;;;;;;5.50;1.40;;;;;;;;;;5044364;28;20167;-69
2022/04/08 14:33:30;;;;;;;4.50;1.20;;;;;;;;;;5046348;28;20573;-68